createdAt,value
2022-10-23T00:01:33.537Z,5
2022-10-23T00:06:33.540Z,5
2022-10-23T00:16:33.561Z,5
2022-10-23T00:26:33.599Z,5
2022-10-23T00:36:33.545Z,5
2022-10-23T00:46:33.587Z,5
2022-10-23T00:51:33.572Z,5
2022-10-23T00:56:33.574Z,5
2022-10-23T01:06:33.628Z,5
2022-10-23T01:16:33.575Z,5
2022-10-23T01:26:33.576Z,5
2022-10-23T01:31:33.587Z,5
2022-10-23T01:41:33.570Z,5
2022-10-23T01:46:33.609Z,5
2022-10-23T01:56:33.597Z,5
2022-10-23T02:01:33.723Z,5
2022-10-23T02:11:33.614Z,5
2022-10-23T02:16:33.609Z,5
2022-10-23T02:26:33.588Z,5
2022-10-23T02:31:33.624Z,5
2022-10-23T02:41:33.572Z,5
2022-10-23T02:46:33.610Z,5
2022-10-23T02:51:33.638Z,5
2022-10-23T03:01:33.730Z,5
2022-10-23T03:06:33.623Z,5
2022-10-23T03:11:33.635Z,5
2022-10-23T03:16:33.629Z,5
2022-10-23T03:26:33.607Z,5
2022-10-23T03:36:33.633Z,5
2022-10-23T03:41:33.616Z,5
2022-10-23T03:51:33.608Z,5
2022-10-23T04:01:33.779Z,5
2022-10-23T04:11:33.605Z,4.9
2022-10-23T04:21:33.632Z,5
2022-10-23T04:26:33.627Z,5
2022-10-23T04:36:33.753Z,5
2022-10-23T04:41:33.681Z,5.1
2022-10-23T04:51:33.617Z,5
2022-10-23T05:01:33.790Z,5
2022-10-23T05:11:33.627Z,5.1
2022-10-23T05:16:33.653Z,5.1
2022-10-23T05:26:33.661Z,5.1
2022-10-23T05:31:33.645Z,5.1
2022-10-23T05:41:33.644Z,5.1
2022-10-23T05:51:33.665Z,5.1
2022-10-23T05:56:33.682Z,5.1
2022-10-23T06:06:33.625Z,5.1
2022-10-23T06:11:33.658Z,5.1
2022-10-23T06:16:33.655Z,5.3
2022-10-23T06:21:33.687Z,5
2022-10-23T06:31:33.666Z,5.1
2022-10-23T06:36:33.669Z,5.1
2022-10-23T06:46:33.645Z,5.1
2022-10-23T06:56:33.700Z,5.1
2022-10-23T07:06:33.649Z,5.1
2022-10-23T07:11:33.670Z,5.1
2022-10-23T07:21:33.682Z,5.1
2022-10-23T07:26:33.699Z,5.1
2022-10-23T07:36:33.694Z,5.1
2022-10-23T07:41:33.681Z,5.1
2022-10-23T07:46:33.698Z,5.3
2022-10-23T07:56:33.692Z,5.1
2022-10-23T08:01:33.998Z,5.2
2022-10-23T08:11:33.671Z,5.1
2022-10-23T08:21:33.726Z,5.1
2022-10-23T08:31:33.714Z,5.1
2022-10-23T08:41:33.713Z,5.2
2022-10-23T08:51:33.710Z,5.2
2022-10-23T09:01:33.839Z,5.2
2022-10-23T09:06:33.717Z,5.1
2022-10-23T09:16:33.710Z,5.1
2022-10-23T09:26:33.733Z,5.1
2022-10-23T09:36:33.725Z,5.1
2022-10-23T09:41:33.768Z,5.1
2022-10-23T09:51:33.723Z,5.2
2022-10-23T09:56:33.733Z,5.2
2022-10-23T10:06:33.827Z,5.1
2022-10-23T10:16:33.788Z,5.2
2022-10-23T10:21:33.745Z,5.1
2022-10-23T10:31:33.714Z,5.2
2022-10-23T10:36:33.771Z,5.2
2022-10-23T10:46:33.722Z,5.2
2022-10-23T10:56:33.755Z,5.2
2022-10-23T11:01:34.028Z,5.2
2022-10-23T11:06:33.746Z,5.2
2022-10-23T11:16:33.744Z,5.2
2022-10-23T11:21:33.748Z,5.2
2022-10-23T11:31:33.727Z,5.1
2022-10-23T11:36:33.780Z,5.1
2022-10-23T11:41:33.767Z,5.1
2022-10-23T11:51:33.775Z,5.1
2022-10-23T12:01:33.819Z,5.1
2022-10-23T12:11:33.760Z,5.1
2022-10-23T12:16:33.764Z,5.1
2022-10-23T12:26:33.799Z,5.1
2022-10-23T12:31:33.769Z,5.1
2022-10-23T12:41:33.735Z,5
2022-10-23T12:46:33.780Z,5.1
2022-10-23T12:56:35.238Z,5.1
2022-10-23T13:01:33.862Z,5.1
2022-10-23T13:06:33.804Z,5.1
2022-10-23T13:11:33.783Z,5.1
2022-10-23T13:21:33.781Z,5.1
2022-10-23T13:26:33.799Z,5.1
2022-10-23T13:36:33.759Z,5.1
2022-10-23T13:41:33.782Z,5.1
2022-10-23T13:51:34.541Z,5.1
2022-10-23T14:01:33.895Z,5.1
2022-10-23T14:11:33.771Z,5.1
2022-10-23T14:16:33.784Z,5
2022-10-23T14:26:33.754Z,5.1
2022-10-23T14:31:33.821Z,5.1
2022-10-23T14:36:43.272Z,5.1
2022-10-23T14:46:33.761Z,5
2022-10-23T14:51:33.841Z,5.1
2022-10-23T15:01:34.001Z,5.1
2022-10-23T15:11:33.829Z,5
2022-10-23T15:21:33.793Z,5
2022-10-23T15:26:33.789Z,5
2022-10-23T15:36:33.853Z,4.6
2022-10-23T15:41:33.838Z,4.8
2022-10-23T15:51:33.814Z,4.9
2022-10-23T15:56:33.848Z,4.9
2022-10-23T16:01:33.935Z,4.9
2022-10-23T16:11:33.797Z,4.9
2022-10-23T16:16:33.843Z,4.9
2022-10-23T16:21:33.853Z,4.9
2022-10-23T16:31:33.829Z,5
2022-10-23T16:41:33.822Z,5
2022-10-23T16:46:33.801Z,5
2022-10-23T16:51:33.855Z,5
2022-10-23T16:56:33.856Z,5
2022-10-23T17:06:33.885Z,4.9
2022-10-23T17:11:33.851Z,5
2022-10-23T17:16:33.865Z,4.9
2022-10-23T17:21:33.866Z,4.9
2022-10-23T17:31:33.895Z,4.7
2022-10-23T17:41:33.873Z,4.8
2022-10-23T17:51:33.893Z,4.7
2022-10-23T17:56:33.877Z,4.8
2022-10-23T18:06:33.853Z,4.6
2022-10-23T18:16:33.896Z,4.6
2022-10-23T18:26:33.888Z,4.6
2022-10-23T18:31:33.888Z,4.6
2022-10-23T18:36:33.932Z,4.6
2022-10-23T18:46:33.891Z,4.7
2022-10-23T18:56:33.919Z,4.6
2022-10-23T19:01:34.001Z,4.6
2022-10-23T19:11:33.893Z,4.6
2022-10-23T19:21:33.915Z,4.7
2022-10-23T19:31:33.875Z,4.7
2022-10-23T19:36:33.931Z,4.6
2022-10-23T19:46:33.956Z,4.7
2022-10-23T19:56:33.900Z,4.6
2022-10-23T20:01:34.030Z,4.5
2022-10-23T20:06:33.986Z,4.6
2022-10-23T20:16:33.934Z,4.5
2022-10-23T20:21:33.950Z,4.5
2022-10-23T20:31:33.954Z,4.5
2022-10-23T20:36:33.957Z,4.4
2022-10-23T20:46:33.936Z,4.4
2022-10-23T20:51:33.984Z,4.5
2022-10-23T21:01:34.093Z,4.5
2022-10-23T21:06:45.659Z,4.5
2022-10-23T21:11:33.983Z,4.5
2022-10-23T21:21:33.957Z,4.6
2022-10-23T21:26:33.991Z,4.5
2022-10-23T21:36:34.228Z,4.5
2022-10-23T21:46:33.971Z,4.6
2022-10-23T21:51:33.982Z,4.6
2022-10-23T21:56:34.026Z,4.5
2022-10-23T22:06:33.963Z,4.5
2022-10-23T22:11:33.958Z,4.6
2022-10-23T22:21:34.043Z,4.3
2022-10-23T22:31:34.014Z,4.4
2022-10-23T22:36:34.024Z,4.4
2022-10-23T22:46:34.024Z,4.5
2022-10-23T22:51:34.020Z,4.5
2022-10-23T23:01:34.130Z,4.5
2022-10-23T23:11:45.643Z,4.4
2022-10-23T23:16:34.032Z,4.5
2022-10-23T23:21:34.015Z,4.5
2022-10-23T23:31:34.024Z,4.5
2022-10-23T23:36:34.048Z,4.6
2022-10-23T23:46:34.029Z,4.6
2022-10-23T23:56:34.051Z,4.5
